Wetterdaten: aktuell Montag, 25.05.2020 19:00
Datum Zeit Temp. I. Temp. A. Temp. 2 Temp. Wind Windchill X Feuchte I. Feuchte A. Feuchte 2 Luftdruck Regen Wind Richtung Richtung Taupunkt Windchill Windben
25.05.2020 19:00 23,1 C 18,9 C 23,6 C 22,6 C 22,6 C 45 % 47 % 38 % 1030,1 hPa 0,0 l/m 4,8 km/h (1 Bft) N 360 7,3 C 18,9 C 6,1 km/h (2 Bft)
25.05.2020 18:55 23,1 C 19,1 C 23,6 C 22,9 C 22,9 C 45 % 46 % 37 % 1030,1 hPa 0,0 l/m 5,3 km/h (1 Bft) W 270 7,2 C 19,1 C 5,3 km/h (1 Bft)
25.05.2020 18:50 23,1 C 19,1 C 23,5 C 23,1 C 23,1 C 45 % 46 % 37 % 1030,1 hPa 0,0 l/m 5,6 km/h (2 Bft) N-NO 22 7,2 C 19,1 C 5,0 km/h (1 Bft)
25.05.2020 18:45 23,0 C 19,2 C 23,5 C 23,3 C 23,3 C 45 % 46 % 37 % 1030,1 hPa 0,0 l/m 5,8 km/h (2 Bft) N-NW 337 7,3 C 19,2 C 7,9 km/h (2 Bft)
25.05.2020 18:40 23,0 C 19,1 C 23,3 C 23,1 C 23,1 C 45 % 46 % 37 % 1030,1 hPa 0,0 l/m 6,3 km/h (2 Bft) W-NW 292 7,2 C 19,1 C 4,3 km/h (1 Bft)
25.05.2020 18:35 23,0 C 19,1 C 23,0 C 23,1 C 23,1 C 45 % 47 % 38 % 1030,1 hPa 0,0 l/m 7,2 km/h (2 Bft) SW 225 7,5 C 18,7 C 4,5 km/h (1 Bft)
25.05.2020 18:30 23,0 C 19,1 C 22,9 C 23,1 C 23,1 C 46 % 47 % 39 % 1030,1 hPa 0,0 l/m 6,4 km/h (2 Bft) N-NO 22 7,5 C 19,1 C 15,4 km/h (3 Bft)
25.05.2020 18:25 23,0 C 19,1 C 22,8 C 22,8 C 22,8 C 45 % 47 % 41 % 1030,0 hPa 0,0 l/m 5,0 km/h (1 Bft) W 270 7,5 C 19,1 C 8,0 km/h (2 Bft)
25.05.2020 18:20 23,0 C 19,1 C 22,6 C 23,3 C 23,3 C 46 % 49 % 42 % 1030,0 hPa 0,0 l/m 6,3 km/h (2 Bft) W-SW 247 8,1 C 19,1 C 5,5 km/h (2 Bft)
25.05.2020 18:15 23,0 C 19,1 C 22,2 C 23,2 C 23,2 C 46 % 47 % 39 % 1030,0 hPa 0,0 l/m 7,7 km/h (2 Bft) NW 315 7,5 C 18,5 C 5,3 km/h (1 Bft)
25.05.2020 18:10 23,0 C 19,1 C 22,0 C 23,2 C 23,2 C 46 % 48 % 39 % 1030,0 hPa 0,0 l/m 8,2 km/h (2 Bft) W-SW 247 7,8 C 18,3 C 7,9 km/h (2 Bft)
25.05.2020 18:05 22,9 C 18,9 C 21,6 C 22,9 C 22,9 C 46 % 47 % 39 % 1030,0 hPa 0,0 l/m 9,5 km/h (2 Bft) W 270 7,3 C 17,6 C 14,8 km/h (3 Bft)
25.05.2020 18:00 22,9 C 18,9 C 21,5 C 22,7 C 22,7 C 46 % 46 % 38 % 1030,0 hPa 0,0 l/m 8,7 km/h (2 Bft) W-SW 247 7,0 C 17,9 C 9,7 km/h (2 Bft)
25.05.2020 17:55 22,8 C 18,9 C 21,5 C 22,6 C 22,6 C 46 % 47 % 39 % 1030,0 hPa 0,0 l/m 7,4 km/h (2 Bft) N 360 7,3 C 18,5 C 8,7 km/h (2 Bft)
25.05.2020 17:50 22,8 C 18,8 C 21,3 C 22,1 C 22,1 C 46 % 48 % 41 % 1030,0 hPa 0,0 l/m 7,4 km/h (2 Bft) W 270 7,6 C 18,4 C 6,9 km/h (2 Bft)
25.05.2020 17:45 22,8 C 18,9 C 21,3 C 23,0 C 23,0 C 46 % 47 % 39 % 1029,6 hPa 0,0 l/m 7,9 km/h (2 Bft) NO 45 7,3 C 18,2 C 13,4 km/h (3 Bft)
25.05.2020 17:40 22,8 C 19,0 C 21,0 C 23,1 C 23,1 C 46 % 49 % 41 % 1029,6 hPa 0,0 l/m 6,0 km/h (2 Bft) NW 315 8,0 C 19,0 C 9,3 km/h (2 Bft)
25.05.2020 17:35 22,8 C 18,9 C 20,7 C 23,5 C 23,5 C 46 % 49 % 43 % 1029,6 hPa 0,0 l/m 5,6 km/h (2 Bft) N-NO 22 7,9 C 18,9 C 12,9 km/h (3 Bft)
25.05.2020 17:30 22,7 C 18,7 C 20,2 C 22,7 C 22,7 C 46 % 49 % 42 % 1029,6 hPa 0,0 l/m 6,9 km/h (2 Bft) NW 315 7,8 C 18,5 C 6,0 km/h (2 Bft)
25.05.2020 17:25 22,6 C 18,6 C 19,6 C 21,7 C 21,7 C 46 % 49 % 42 % 1029,4 hPa 0,0 l/m 7,9 km/h (2 Bft) N-NO 22 7,7 C 17,9 C 4,7 km/h (1 Bft)
25.05.2020 17:20 22,6 C 18,5 C 19,4 C 22,0 C 22,0 C 46 % 50 % 42 % 1029,4 hPa 0,0 l/m 8,0 km/h (2 Bft) N 360 7,9 C 17,8 C 13,0 km/h (3 Bft)
25.05.2020 17:15 22,5 C 18,4 C 18,9 C 21,0 C 21,0 C 46 % 50 % 43 % 1029,4 hPa 0,0 l/m 6,4 km/h (2 Bft) NW 315 7,8 C 18,4 C 14,2 km/h (3 Bft)
25.05.2020 17:10 22,5 C 18,3 C 18,6 C 20,2 C 20,2 C 46 % 51 % 45 % 1029,4 hPa 0,0 l/m 5,5 km/h (2 Bft) NW 315 8,0 C 18,3 C 7,6 km/h (2 Bft)
25.05.2020 17:06 22,5 C 18,3 C 18,6 C 20,2 C 20,2 C 46 % 51 % 45 % 1029,4 hPa 0,0 l/m 5,5 km/h (2 Bft) NW 315 8,0 C 18,3 C 7,6 km/h (2 Bft)
25.05.2020 17:00 22,5 C 18,5 C 18,4 C 20,3 C 20,3 C 46 % 50 % 45 % 1029,5 hPa 0,0 l/m 8,5 km/h (2 Bft) W-SW 247 7,9 C 17,6 C 6,6 km/h (2 Bft)
25.05.2020 16:55 22,5 C 18,9 C 18,2 C 22,2 C 22,2 C 46 % 50 % 44 % 1029,5 hPa 0,0 l/m 7,7 km/h (2 Bft) N-NO 22 8,2 C 18,3 C 17,5 km/h (3 Bft)
25.05.2020 16:50 22,5 C 18,8 C 18,2 C 23,0 C 23,0 C 46 % 50 % 43 % 1029,5 hPa 0,0 l/m 6,4 km/h (2 Bft) N-NW 337 8,2 C 18,8 C 11,6 km/h (2 Bft)
25.05.2020 16:45 22,4 C 18,6 C 17,9 C 22,0 C 22,0 C 47 % 50 % 43 % 1029,2 hPa 0,0 l/m 9,2 km/h (2 Bft) N-NO 22 8,0 C 17,4 C 7,2 km/h (2 Bft)
25.05.2020 16:40 22,4 C 18,5 C 17,8 C 21,0 C 21,0 C 46 % 50 % 43 % 1029,2 hPa 0,0 l/m 10,5 km/h (2 Bft) W 270 7,9 C 16,8 C 8,5 km/h (2 Bft)
25.05.2020 16:35 22,4 C 18,8 C 17,9 C 22,8 C 22,8 C 47 % 48 % 42 % 1029,2 hPa 0,0 l/m 8,0 km/h (2 Bft) N-NO 22 7,6 C 18,1 C 20,8 km/h (4 Bft)
25.05.2020 16:30 22,4 C 18,9 C 17,9 C 23,3 C 23,3 C 47 % 50 % 42 % 1029,2 hPa 0,0 l/m 6,1 km/h (2 Bft) N-NO 22 8,2 C 18,9 C 16,9 km/h (3 Bft)
25.05.2020 16:25 22,3 C 18,7 C 17,8 C 22,5 C 22,5 C 47 % 51 % 44 % 1029,3 hPa 0,0 l/m 6,6 km/h (2 Bft) N-NW 337 8,4 C 18,6 C 9,3 km/h (2 Bft)
25.05.2020 16:20 22,2 C 18,5 C 17,8 C 21,3 C 21,3 C 47 % 50 % 44 % 1029,3 hPa 0,0 l/m 7,2 km/h (2 Bft) N-NO 22 7,9 C 18,1 C 12,1 km/h (2 Bft)
25.05.2020 16:15 22,2 C 18,6 C 17,8 C 21,7 C 21,7 C 47 % 49 % 42 % 1029,3 hPa 0,0 l/m 7,4 km/h (2 Bft) S 180 7,7 C 18,1 C 8,5 km/h (2 Bft)
25.05.2020 16:10 22,2 C 18,8 C 17,9 C 22,3 C 22,3 C 47 % 51 % 45 % 1029,3 hPa 0,0 l/m 6,8 km/h (2 Bft) W 270 8,4 C 18,6 C 9,3 km/h (2 Bft)
25.05.2020 16:05 22,1 C 19,0 C 17,8 C 24,4 C 24,4 C 47 % 51 % 45 % 1029,0 hPa 0,0 l/m 5,6 km/h (2 Bft) N-NO 22 8,6 C 19,0 C 10,8 km/h (2 Bft)
25.05.2020 16:00 22,1 C 19,0 C 17,7 C 24,8 C 24,8 C 47 % 51 % 45 % 1029,0 hPa 0,0 l/m 4,0 km/h (1 Bft) W-SW 247 8,6 C 19,0 C 6,1 km/h (2 Bft)
25.05.2020 15:55 22,0 C 18,6 C 17,6 C 24,0 C 24,0 C 47 % 53 % 46 % 1029,0 hPa 0,0 l/m 4,8 km/h (1 Bft) S-SW 202 8,8 C 18,6 C 13,4 km/h (3 Bft)
25.05.2020 15:50 22,0 C 18,4 C 17,5 C 22,5 C 22,5 C 47 % 52 % 45 % 1029,0 hPa 0,0 l/m 5,6 km/h (2 Bft) W-SW 247 8,4 C 18,4 C 2,1 km/h (1 Bft)
25.05.2020 15:45 21,9 C 18,3 C 17,4 C 22,0 C 22,0 C 47 % 52 % 46 % 1029,1 hPa 0,0 l/m 5,1 km/h (1 Bft) N-NW 337 8,3 C 18,3 C 13,8 km/h (3 Bft)
25.05.2020 15:40 21,8 C 18,2 C 17,4 C 22,3 C 22,3 C 48 % 54 % 47 % 1029,1 hPa 0,0 l/m 4,0 km/h (1 Bft) NW 315 8,7 C 18,2 C 5,0 km/h (1 Bft)
25.05.2020 15:35 21,8 C 18,0 C 17,2 C 22,7 C 22,7 C 48 % 54 % 47 % 1029,1 hPa 0,0 l/m 4,0 km/h (1 Bft) SW 225 8,6 C 18,0 C 0,0 km/h (0 Bft)
25.05.2020 15:30 21,8 C 17,9 C 17,1 C 21,1 C 21,1 C 48 % 54 % 46 % 1029,1 hPa 0,0 l/m 7,1 km/h (2 Bft) W 270 8,5 C 17,6 C 1,9 km/h (1 Bft)
25.05.2020 15:25 21,7 C 17,7 C 17,0 C 20,6 C 20,6 C 48 % 54 % 46 % 1028,9 hPa 0,0 l/m 9,3 km/h (2 Bft) W 270 8,3 C 16,4 C 8,4 km/h (2 Bft)
25.05.2020 15:20 21,7 C 17,8 C 17,1 C 21,8 C 21,8 C 48 % 54 % 47 % 1028,9 hPa 0,0 l/m 10,3 km/h (2 Bft) S 180 8,4 C 16,1 C 17,1 km/h (3 Bft)
25.05.2020 15:15 21,6 C 17,9 C 17,1 C 21,9 C 21,9 C 48 % 54 % 47 % 1028,9 hPa 0,0 l/m 9,2 km/h (2 Bft) N-NW 337 8,5 C 16,6 C 14,3 km/h (3 Bft)
25.05.2020 15:10 21,6 C 17,8 C 17,2 C 21,8 C 21,8 C 48 % 57 % 49 % 1028,9 hPa 0,0 l/m 7,7 km/h (2 Bft) O-NO 67 9,2 C 17,2 C 10,3 km/h (2 Bft)
25.05.2020 15:05 21,6 C 17,6 C 17,0 C 20,4 C 20,4 C 48 % 55 % 48 % 1028,4 hPa 0,0 l/m 9,2 km/h (2 Bft) N 360 8,5 C 16,3 C 10,3 km/h (2 Bft)
25.05.2020 15:00 21,6 C 17,6 C 17,2 C 20,1 C 20,1 C 48 % 55 % 47 % 1028,4 hPa 0,0 l/m 9,2 km/h (2 Bft) N 360 8,5 C 16,3 C 12,4 km/h (2 Bft)
25.05.2020 14:55 21,5 C 17,7 C 17,0 C 21,4 C 21,4 C 48 % 56 % 49 % 1028,4 hPa 0,0 l/m 7,7 km/h (2 Bft) NW 315 8,8 C 17,1 C 12,4 km/h (2 Bft)
25.05.2020 14:50 21,5 C 17,6 C 17,0 C 22,1 C 22,1 C 48 % 58 % 50 % 1028,4 hPa 0,0 l/m 7,6 km/h (2 Bft) W-SW 247 9,2 C 17,0 C 13,5 km/h (3 Bft)
25.05.2020 14:45 21,5 C 17,5 C 16,9 C 21,0 C 21,0 C 48 % 57 % 50 % 1028,8 hPa 0,0 l/m 7,6 km/h (2 Bft) N-NO 22 8,9 C 16,9 C 14,6 km/h (3 Bft)
25.05.2020 14:40 21,5 C 17,5 C 16,8 C 20,1 C 20,1 C 48 % 57 % 49 % 1028,8 hPa 0,0 l/m 6,6 km/h (2 Bft) N 360 8,9 C 17,4 C 7,9 km/h (2 Bft)
25.05.2020 14:35 21,5 C 17,5 C 16,9 C 20,6 C 20,6 C 48 % 57 % 49 % 1028,8 hPa 0,0 l/m 6,4 km/h (2 Bft) W 270 8,9 C 17,5 C 5,3 km/h (1 Bft)
25.05.2020 14:30 21,5 C 17,6 C 17,0 C 21,4 C 21,4 C 48 % 57 % 50 % 1028,8 hPa 0,0 l/m 7,2 km/h (2 Bft) W 270 9,0 C 17,2 C 8,2 km/h (2 Bft)
25.05.2020 14:25 21,5 C 17,5 C 16,7 C 21,4 C 21,4 C 48 % 57 % 50 % 1028,8 hPa 0,0 l/m 8,9 km/h (2 Bft) N-NO 22 8,9 C 16,3 C 7,6 km/h (2 Bft)
25.05.2020 14:20 21,5 C 17,4 C 16,6 C 20,9 C 20,9 C 48 % 59 % 50 % 1028,8 hPa 0,0 l/m 6,9 km/h (2 Bft) SW 225 9,3 C 17,2 C 10,1 km/h (2 Bft)
25.05.2020 14:15 21,5 C 17,1 C 16,7 C 21,6 C 21,6 C 48 % 60 % 52 % 1028,8 hPa 0,0 l/m 6,6 km/h (2 Bft) S 180 9,3 C 17,0 C 6,1 km/h (2 Bft)
25.05.2020 14:10 21,5 C 17,0 C 16,7 C 20,7 C 20,7 C 48 % 61 % 52 % 1028,8 hPa 0,0 l/m 9,2 km/h (2 Bft) W-SW 247 9,4 C 15,7 C 2,3 km/h (1 Bft)
25.05.2020 14:05 21,4 C 16,8 C 16,7 C 19,7 C 19,7 C 48 % 60 % 52 % 1028,3 hPa 0,0 l/m 8,2 km/h (2 Bft) N-NO 22 9,0 C 15,9 C 14,0 km/h (3 Bft)
25.05.2020 14:00 21,5 C 16,9 C 16,8 C 20,4 C 20,4 C 48 % 61 % 52 % 1028,3 hPa 0,0 l/m 7,7 km/h (2 Bft) N 360 9,3 C 16,2 C 16,3 km/h (3 Bft)
25.05.2020 13:55 21,4 C 16,9 C 16,7 C 21,8 C 21,8 C 48 % 61 % 53 % 1028,3 hPa 0,0 l/m 7,7 km/h (2 Bft) N-NO 22 9,3 C 16,2 C 11,3 km/h (2 Bft)
25.05.2020 13:50 21,4 C 16,8 C 16,6 C 21,2 C 21,2 C 48 % 60 % 52 % 1028,3 hPa 0,0 l/m 8,7 km/h (2 Bft) W 270 9,0 C 15,7 C 11,4 km/h (2 Bft)
25.05.2020 13:45 21,4 C 16,7 C 16,5 C 20,6 C 20,6 C 48 % 60 % 50 % 1028,8 hPa 0,0 l/m 10,5 km/h (2 Bft) N-NO 22 8,9 C 14,8 C 10,8 km/h (2 Bft)
25.05.2020 13:40 21,4 C 16,7 C 16,6 C 20,4 C 20,4 C 48 % 60 % 52 % 1028,8 hPa 0,0 l/m 10,8 km/h (2 Bft) NW 315 8,9 C 14,7 C 18,5 km/h (3 Bft)
25.05.2020 13:35 21,4 C 16,7 C 16,6 C 21,1 C 21,1 C 48 % 61 % 53 % 1028,8 hPa 0,0 l/m 9,8 km/h (2 Bft) N 360 9,1 C 15,1 C 19,3 km/h (3 Bft)
25.05.2020 13:30 21,4 C 16,7 C 16,7 C 21,9 C 21,9 C 48 % 63 % 54 % 1028,8 hPa 0,0 l/m 7,2 km/h (2 Bft) O 90 9,6 C 16,3 C 29,3 km/h (5 Bft)
25.05.2020 13:25 21,4 C 16,5 C 16,7 C 21,3 C 21,3 C 48 % 63 % 54 % 1028,8 hPa 0,0 l/m 7,4 km/h (2 Bft) N 360 9,4 C 16,0 C 12,4 km/h (2 Bft)
25.05.2020 13:20 21,2 C 16,4 C 16,6 C 20,3 C 20,3 C 48 % 62 % 53 % 1028,8 hPa 0,0 l/m 8,0 km/h (2 Bft) SW 225 9,1 C 15,6 C 28,6 km/h (5 Bft)
25.05.2020 13:15 21,2 C 16,5 C 16,5 C 21,4 C 21,4 C 48 % 62 % 52 % 1028,8 hPa 0,0 l/m 8,4 km/h (2 Bft) N-NO 22 9,2 C 15,5 C 12,2 km/h (2 Bft)
25.05.2020 13:10 21,2 C 16,5 C 16,5 C 21,0 C 21,0 C 48 % 63 % 54 % 1028,8 hPa 0,0 l/m 7,1 km/h (2 Bft) W-NW 292 9,4 C 16,1 C 3,7 km/h (1 Bft)
25.05.2020 13:05 21,3 C 16,2 C 16,4 C 21,3 C 21,3 C 48 % 62 % 54 % 1028,9 hPa 0,0 l/m 5,8 km/h (2 Bft) W-SW 247 8,9 C 16,2 C 9,8 km/h (2 Bft)
25.05.2020 13:00 21,3 C 16,0 C 16,5 C 20,8 C 20,8 C 48 % 64 % 55 % 1028,9 hPa 0,0 l/m 5,3 km/h (1 Bft) W-SW 247 9,2 C 16,0 C 2,9 km/h (1 Bft)
25.05.2020 12:55 21,2 C 15,9 C 16,6 C 19,2 C 19,2 C 48 % 65 % 56 % 1028,9 hPa 0,0 l/m 5,3 km/h (1 Bft) W 270 9,3 C 15,9 C 5,0 km/h (1 Bft)
25.05.2020 12:50 21,2 C 16,0 C 16,6 C 19,2 C 19,2 C 48 % 64 % 55 % 1028,9 hPa 0,0 l/m 5,1 km/h (1 Bft) N-NW 337 9,2 C 16,0 C 3,2 km/h (1 Bft)
25.05.2020 12:45 21,2 C 16,1 C 16,4 C 19,9 C 19,9 C 48 % 63 % 54 % 1028,6 hPa 0,0 l/m 6,1 km/h (2 Bft) N-NO 22 9,1 C 16,1 C 10,3 km/h (2 Bft)
25.05.2020 12:40 21,2 C 16,1 C 16,2 C 21,0 C 21,0 C 48 % 64 % 54 % 1028,6 hPa 0,0 l/m 6,0 km/h (2 Bft) NW 315 9,3 C 16,1 C 5,6 km/h (2 Bft)
25.05.2020 12:35 21,2 C 15,9 C 16,2 C 21,6 C 21,6 C 48 % 65 % 55 % 1028,6 hPa 0,0 l/m 5,3 km/h (1 Bft) SO 135 9,3 C 15,9 C 2,9 km/h (1 Bft)
25.05.2020 12:30 21,2 C 15,8 C 16,2 C 20,1 C 20,1 C 48 % 66 % 56 % 1028,6 hPa 0,0 l/m 6,0 km/h (2 Bft) W-SW 247 9,5 C 15,8 C 6,4 km/h (2 Bft)
25.05.2020 12:25 21,2 C 15,5 C 16,2 C 18,3 C 18,3 C 48 % 65 % 55 % 1028,8 hPa 0,0 l/m 6,9 km/h (2 Bft) W-SW 247 8,9 C 15,2 C 3,7 km/h (1 Bft)
25.05.2020 12:20 21,2 C 15,5 C 16,2 C 17,9 C 17,9 C 48 % 65 % 55 % 1028,8 hPa 0,0 l/m 6,8 km/h (2 Bft) N-NO 22 8,9 C 15,3 C 11,4 km/h (2 Bft)
25.05.2020 12:15 21,2 C 15,5 C 16,2 C 17,8 C 17,8 C 48 % 66 % 56 % 1028,8 hPa 0,0 l/m 9,2 km/h (2 Bft) N 360 9,2 C 14,0 C 9,8 km/h (2 Bft)
25.05.2020 12:10 21,2 C 15,5 C 16,2 C 17,8 C 17,8 C 48 % 66 % 56 % 1028,8 hPa 0,0 l/m 10,3 km/h (2 Bft) W-SW 247 9,2 C 13,5 C 16,3 km/h (3 Bft)
25.05.2020 12:05 21,2 C 15,7 C 16,4 C 19,0 C 19,0 C 48 % 66 % 57 % 1028,6 hPa 0,0 l/m 8,4 km/h (2 Bft) NO 45 9,4 C 14,6 C 9,0 km/h (2 Bft)
25.05.2020 12:00 21,2 C 15,7 C 16,4 C 19,8 C 19,8 C 48 % 67 % 58 % 1028,6 hPa 0,0 l/m 6,6 km/h (2 Bft) O 90 9,6 C 15,6 C 22,7 km/h (4 Bft)
25.05.2020 11:55 21,2 C 15,6 C 16,4 C 20,3 C 20,3 C 48 % 69 % 59 % 1028,6 hPa 0,0 l/m 4,3 km/h (1 Bft) N-NO 22 9,9 C 15,6 C 9,5 km/h (2 Bft)
25.05.2020 11:50 21,2 C 15,5 C 16,3 C 20,0 C 20,0 C 48 % 69 % 59 % 1028,6 hPa 0,0 l/m 4,3 km/h (1 Bft) N-NW 337 9,8 C 15,5 C 5,8 km/h (2 Bft)
25.05.2020 11:45 21,2 C 15,4 C 16,2 C 19,6 C 19,6 C 48 % 70 % 59 % 1028,5 hPa 0,0 l/m 5,0 km/h (1 Bft) O-NO 67 10,0 C 15,4 C 2,4 km/h (1 Bft)
25.05.2020 11:40 21,1 C 15,3 C 16,2 C 19,1 C 19,1 C 48 % 69 % 59 % 1028,5 hPa 0,0 l/m 6,3 km/h (2 Bft) S-SW 202 9,6 C 15,3 C 10,5 km/h (2 Bft)
25.05.2020 11:35 21,1 C 15,2 C 16,2 C 18,4 C 18,4 C 48 % 70 % 59 % 1028,5 hPa 0,0 l/m 6,6 km/h (2 Bft) N 360 9,8 C 15,1 C 5,0 km/h (1 Bft)
25.05.2020 11:30 21,1 C 15,2 C 16,1 C 18,3 C 18,3 C 49 % 69 % 59 % 1028,5 hPa 0,0 l/m 5,3 km/h (1 Bft) O-NO 67 9,6 C 15,2 C 8,9 km/h (2 Bft)
25.05.2020 11:25 21,1 C 15,1 C 16,0 C 18,0 C 18,0 C 49 % 71 % 60 % 1028,2 hPa 0,0 l/m 5,0 km/h (1 Bft) S-SW 202 9,9 C 15,1 C 10,5 km/h (2 Bft)
25.05.2020 11:20 21,1 C 15,1 C 16,0 C 18,3 C 18,3 C 49 % 70 % 60 % 1028,2 hPa 0,0 l/m 5,0 km/h (1 Bft) W-NW 292 9,7 C 15,1 C 3,9 km/h (1 Bft)
25.05.2020 11:15 21,1 C 15,0 C 15,9 C 18,5 C 18,5 C 49 % 71 % 62 % 1028,2 hPa 0,0 l/m 6,0 km/h (2 Bft) NW 315 9,8 C 15,0 C 3,1 km/h (1 Bft)
25.05.2020 11:10 21,0 C 14,9 C 15,9 C 17,6 C 17,6 C 49 % 71 % 61 % 1028,2 hPa 0,0 l/m 5,6 km/h (2 Bft) SW 225 9,7 C 14,9 C 4,5 km/h (1 Bft)
25.05.2020 11:05 21,0 C 14,8 C 16,0 C 16,5 C 16,5 C 49 % 71 % 61 % 1028,1 hPa 0,0 l/m 3,5 km/h (1 Bft) W-NW 292 9,6 C 14,8 C 6,1 km/h (2 Bft)
25.05.2020 11:00 21,0 C 14,9 C 16,1 C 16,8 C 16,8 C 49 % 71 % 60 % 1028,1 hPa 0,0 l/m 3,9 km/h (1 Bft) W-SW 247 9,7 C 14,9 C 2,3 km/h (1 Bft)
25.05.2020 10:55 21,0 C 15,0 C 16,1 C 17,9 C 17,9 C 49 % 72 % 60 % 1028,1 hPa 0,0 l/m 4,7 km/h (1 Bft) W 270 10,0 C 15,0 C 0,0 km/h (0 Bft)
25.05.2020 10:50 21,0 C 15,0 C 16,1 C 18,5 C 18,5 C 49 % 72 % 60 % 1028,1 hPa 0,0 l/m 6,0 km/h (2 Bft) N-NW 337 10,0 C 15,0 C 4,8 km/h (1 Bft)
25.05.2020 10:45 21,0 C 15,0 C 16,1 C 19,0 C 19,0 C 49 % 73 % 63 % 1028,1 hPa 0,0 l/m 4,5 km/h (1 Bft) W 270 10,2 C 15,0 C 11,1 km/h (2 Bft)
25.05.2020 10:40 21,0 C 14,8 C 16,0 C 18,6 C 18,6 C 49 % 74 % 64 % 1028,1 hPa 0,0 l/m 4,5 km/h (1 Bft) NW 315 10,2 C 14,8 C 5,5 km/h (2 Bft)
25.05.2020 10:35 21,0 C 14,7 C 15,9 C 18,0 C 18,0 C 49 % 74 % 65 % 1028,1 hPa 0,0 l/m 5,5 km/h (2 Bft) W-SW 247 10,1 C 14,7 C 3,1 km/h (1 Bft)
25.05.2020 10:30 21,0 C 14,7 C 15,9 C 17,8 C 17,8 C 49 % 75 % 66 % 1028,1 hPa 0,0 l/m 5,1 km/h (1 Bft) NW 315 10,3 C 14,7 C 20,8 km/h (4 Bft)
25.05.2020 10:25 21,0 C 14,5 C 15,9 C 17,0 C 17,0 C 49 % 76 % 67 % 1028,1 hPa 0,0 l/m 5,1 km/h (1 Bft) NO 45 10,3 C 14,5 C 5,8 km/h (2 Bft)
25.05.2020 10:20 20,9 C 14,5 C 15,9 C 17,2 C 17,2 C 49 % 76 % 67 % 1028,1 hPa 0,0 l/m 4,8 km/h (1 Bft) S 180 10,3 C 14,5 C 19,2 km/h (3 Bft)
25.05.2020 10:15 20,9 C 14,5 C 15,8 C 17,8 C 17,8 C 49 % 77 % 68 % 1028,1 hPa 0,0 l/m 3,5 km/h (1 Bft) O-NO 67 10,5 C 14,5 C 5,8 km/h (2 Bft)
25.05.2020 10:10 20,9 C 14,4 C 15,8 C 17,5 C 17,5 C 49 % 77 % 68 % 1028,1 hPa 0,0 l/m 4,3 km/h (1 Bft) W-SW 247 10,4 C 14,4 C 5,6 km/h (2 Bft)
25.05.2020 10:05 20,9 C 14,3 C 15,7 C 17,2 C 17,2 C 49 % 77 % 68 % 1027,9 hPa 0,0 l/m 5,0 km/h (1 Bft) S 180 10,3 C 14,3 C 9,3 km/h (2 Bft)
25.05.2020 10:00 20,9 C 14,2 C 15,7 C 16,8 C 16,8 C 49 % 78 % 68 % 1027,9 hPa 0,0 l/m 4,3 km/h (1 Bft) N 360 10,4 C 14,2 C 7,6 km/h (2 Bft)
25.05.2020 09:55 20,9 C 14,0 C 15,6 C 16,0 C 16,0 C 49 % 77 % 68 % 1027,9 hPa 0,0 l/m 3,4 km/h (1 Bft) NO 45 10,0 C 14,0 C 3,9 km/h (1 Bft)
25.05.2020 09:50 20,8 C 14,0 C 15,7 C 15,8 C 15,8 C 49 % 78 % 69 % 1027,9 hPa 0,0 l/m 2,1 km/h (1 Bft) SO 135 10,2 C 14,0 C 3,5 km/h (1 Bft)
25.05.2020 09:45 20,8 C 13,9 C 15,6 C 15,6 C 15,6 C 49 % 78 % 69 % 1027,8 hPa 0,0 l/m 3,7 km/h (1 Bft) NW 315 10,1 C 13,9 C 8,9 km/h (2 Bft)
25.05.2020 09:40 20,8 C 13,9 C 15,5 C 15,7 C 15,7 C 49 % 79 % 69 % 1027,8 hPa 0,0 l/m 4,0 km/h (1 Bft) W-SW 247 10,3 C 13,9 C 5,3 km/h (1 Bft)
25.05.2020 09:35 20,8 C 13,9 C 15,5 C 15,2 C 15,2 C 49 % 79 % 69 % 1027,8 hPa 0,0 l/m 6,1 km/h (2 Bft) W-NW 292 10,3 C 13,9 C 10,8 km/h (2 Bft)
25.05.2020 09:30 20,8 C 13,8 C 15,4 C 15,2 C 15,2 C 49 % 79 % 70 % 1027,8 hPa 0,7 l/m 6,3 km/h (2 Bft) W-NW 292 10,2 C 13,8 C 6,0 km/h (2 Bft)
25.05.2020 09:25 20,8 C 13,8 C 15,5 C 15,6 C 15,6 C 49 % 80 % 70 % 1027,8 hPa 0,0 l/m 3,2 km/h (1 Bft) N-NO 22 10,4 C 13,8 C 4,8 km/h (1 Bft)
25.05.2020 09:20 20,8 C 13,7 C 15,5 C 15,8 C 15,8 C 49 % 80 % 71 % 1027,8 hPa 0,0 l/m 2,9 km/h (1 Bft) W 270 10,3 C 13,7 C 4,5 km/h (1 Bft)
25.05.2020 09:15 20,8 C 13,7 C 15,5 C 16,0 C 16,0 C 49 % 81 % 71 % 1027,8 hPa 0,0 l/m 4,0 km/h (1 Bft) SW 225 10,5 C 13,7 C 5,1 km/h (1 Bft)
25.05.2020 09:10 20,8 C 13,7 C 15,5 C 15,7 C 15,7 C 49 % 81 % 71 % 1027,8 hPa 0,0 l/m 3,9 km/h (1 Bft) W-SW 247 10,5 C 13,7 C 0,0 km/h (0 Bft)
25.05.2020 09:05 20,8 C 13,6 C 15,4 C 15,9 C 15,9 C 49 % 81 % 72 % 1027,4 hPa 0,0 l/m 3,5 km/h (1 Bft) S-SW 202 10,4 C 13,6 C 17,1 km/h (3 Bft)
25.05.2020 09:00 20,8 C 13,5 C 15,4 C 16,0 C 16,0 C 49 % 82 % 72 % 1027,4 hPa 0,0 l/m 3,1 km/h (1 Bft) W 270 10,5 C 13,5 C 6,6 km/h (2 Bft)
25.05.2020 08:55 20,8 C 13,4 C 15,3 C 16,1 C 16,1 C 49 % 82 % 72 % 1027,4 hPa 0,0 l/m 4,5 km/h (1 Bft) W 270 10,4 C 13,4 C 6,8 km/h (2 Bft)
25.05.2020 08:50 20,8 C 13,3 C 15,3 C 15,8 C 15,8 C 49 % 82 % 73 % 1027,4 hPa 0,0 l/m 4,0 km/h (1 Bft) W 270 10,3 C 13,3 C 10,6 km/h (2 Bft)
25.05.2020 08:45 20,8 C 13,2 C 15,2 C 15,1 C 15,1 C 49 % 83 % 73 % 1027,4 hPa 0,0 l/m 3,2 km/h (1 Bft) NW 315 10,4 C 13,2 C 6,1 km/h (2 Bft)
25.05.2020 08:40 20,7 C 13,1 C 15,2 C 14,3 C 14,3 C 49 % 83 % 73 % 1027,4 hPa 0,0 l/m 1,8 km/h (1 Bft) SW 225 10,3 C 13,1 C 0,0 km/h (0 Bft)
25.05.2020 08:35 20,7 C 13,0 C 15,1 C 14,0 C 14,0 C 49 % 83 % 73 % 1027,4 hPa 0,0 l/m 1,1 km/h (1 Bft) S 180 10,2 C 13,0 C 4,8 km/h (1 Bft)
25.05.2020 08:30 20,7 C 12,9 C 15,1 C 14,0 C 14,0 C 49 % 83 % 73 % 1027,4 hPa 0,0 l/m 1,9 km/h (1 Bft) W-SW 247 10,1 C 12,9 C 9,2 km/h (2 Bft)
25.05.2020 08:25 20,7 C 12,9 C 15,1 C 13,4 C 13,4 C 49 % 83 % 73 % 1027,4 hPa 0,0 l/m 1,3 km/h (1 Bft) W-SW 247 10,1 C 12,9 C 0,0 km/h (0 Bft)
25.05.2020 08:20 20,7 C 12,9 C 15,1 C 13,1 C 13,1 C 49 % 83 % 73 % 1027,4 hPa 0,0 l/m 1,1 km/h (1 Bft) S-SW 202 10,1 C 12,9 C 8,2 km/h (2 Bft)
25.05.2020 08:15 20,7 C 12,8 C 15,1 C 13,1 C 13,1 C 49 % 83 % 73 % 1027,4 hPa 0,0 l/m 1,6 km/h (1 Bft) W-SW 247 10,0 C 12,8 C 0,0 km/h (0 Bft)
25.05.2020 08:10 20,7 C 12,8 C 15,1 C 13,0 C 13,0 C 49 % 84 % 73 % 1027,4 hPa 0,0 l/m 2,1 km/h (1 Bft) SW 225 10,2 C 12,8 C 2,9 km/h (1 Bft)
25.05.2020 08:05 20,7 C 12,8 C 15,1 C 13,1 C 13,1 C 49 % 84 % 73 % 1027,2 hPa 0,0 l/m 1,1 km/h (1 Bft) W-SW 247 10,2 C 12,8 C 0,0 km/h (0 Bft)
25.05.2020 08:00 20,7 C 12,7 C 15,0 C 13,4 C 13,4 C 49 % 84 % 73 % 1027,2 hPa 0,0 l/m 0,6 km/h (0 Bft) W 270 10,1 C 12,7 C 4,0 km/h (1 Bft)
25.05.2020 07:55 20,7 C 12,7 C 15,0 C 13,4 C 13,4 C 49 % 84 % 73 % 1027,2 hPa 0,0 l/m 0,2 km/h (0 Bft) W 270 10,1 C 12,7 C 0,0 km/h (0 Bft)
25.05.2020 07:50 20,7 C 12,7 C 15,0 C 12,8 C 12,8 C 49 % 84 % 73 % 1027,2 hPa 0,0 l/m 0,5 km/h (0 Bft) W-SW 247 10,1 C 12,7 C 0,0 km/h (0 Bft)
25.05.2020 07:45 20,7 C 12,5 C 14,9 C 12,4 C 12,3 C 49 % 84 % 73 % 1027,1 hPa 0,0 l/m 0,8 km/h (0 Bft) W-SW 247 9,9 C 12,5 C 0,0 km/h (0 Bft)
25.05.2020 07:40 20,7 C 12,5 C 14,9 C 12,4 C 12,2 C 49 % 84 % 73 % 1027,1 hPa 0,0 l/m 0,8 km/h (0 Bft) W-SW 247 9,9 C 12,5 C 2,9 km/h (1 Bft)
25.05.2020 07:35 20,7 C 12,5 C 14,9 C 12,3 C 12,0 C 49 % 84 % 73 % 1027,1 hPa 0,0 l/m 1,1 km/h (1 Bft) W-SW 247 9,9 C 12,5 C 5,1 km/h (1 Bft)
25.05.2020 07:30 20,7 C 12,5 C 14,9 C 12,3 C 12,0 C 49 % 84 % 73 % 1027,1 hPa 0,0 l/m 1,0 km/h (0 Bft) W-SW 247 9,9 C 12,5 C 0,0 km/h (0 Bft)
25.05.2020 07:25 20,7 C 12,4 C 14,8 C 12,3 C 12,0 C 49 % 84 % 73 % 1027,1 hPa 0,0 l/m 1,4 km/h (1 Bft) W 270 9,8 C 12,4 C 0,0 km/h (0 Bft)
25.05.2020 07:20 20,7 C 12,4 C 14,7 C 12,2 C 11,8 C 49 % 84 % 73 % 1027,1 hPa 0,0 l/m 2,6 km/h (1 Bft) SW 225 9,8 C 12,4 C 4,5 km/h (1 Bft)
25.05.2020 07:15 20,7 C 12,3 C 14,7 C 12,1 C 11,6 C 49 % 84 % 72 % 1027,1 hPa 0,0 l/m 1,9 km/h (1 Bft) W-SW 247 9,7 C 12,3 C 3,9 km/h (1 Bft)
25.05.2020 07:10 20,7 C 12,3 C 14,7 C 12,1 C 11,7 C 49 % 84 % 72 % 1027,1 hPa 0,0 l/m 1,0 km/h (0 Bft) W 270 9,7 C 12,3 C 8,4 km/h (2 Bft)
25.05.2020 07:05 20,7 C 12,2 C 14,7 C 12,1 C 12,0 C 49 % 84 % 72 % 1026,9 hPa 0,0 l/m 0,2 km/h (0 Bft) W 270 9,6 C 12,2 C 0,0 km/h (0 Bft)
25.05.2020 07:00 20,7 C 12,2 C 14,7 C 12,3 C 12,3 C 49 % 84 % 72 % 1026,9 hPa 0,0 l/m 0,0 km/h (0 Bft) W-SW 247 9,6 C 12,2 C 0,0 km/h (0 Bft)
25.05.2020 06:55 20,7 C 12,1 C 14,7 C 12,4 C 12,4 C 49 % 84 % 72 % 1026,9 hPa 0,0 l/m 0,5 km/h (0 Bft) W-SW 247 9,5 C 12,1 C 0,0 km/h (0 Bft)
25.05.2020 06:50 20,7 C 12,1 C 14,7 C 12,4 C 12,4 C 49 % 84 % 72 % 1026,9 hPa 0,0 l/m 0,5 km/h (0 Bft) W-SW 247 9,5 C 12,1 C 0,0 km/h (0 Bft)
25.05.2020 06:45 20,7 C 12,0 C 14,7 C 12,2 C 12,2 C 49 % 84 % 72 % 1027,0 hPa 0,0 l/m 0,5 km/h (0 Bft) W-SW 247 9,4 C 12,0 C 0,0 km/h (0 Bft)
25.05.2020 06:40 20,7 C 11,9 C 14,7 C 12,0 C 12,0 C 49 % 84 % 72 % 1027,0 hPa 0,0 l/m 0,5 km/h (0 Bft) W 270 9,3 C 11,9 C 0,0 km/h (0 Bft)
25.05.2020 06:35 20,7 C 11,9 C 14,7 C 11,9 C 11,9 C 49 % 84 % 72 % 1027,0 hPa 0,0 l/m 0,0 km/h (0 Bft) W-SW 247 9,3 C 11,9 C 3,7 km/h (1 Bft)
25.05.2020 06:30 20,7 C 11,9 C 14,7 C 11,9 C 11,8 C 49 % 85 % 72 % 1027,0 hPa 0,0 l/m 0,0 km/h (0 Bft) W-SW 247 9,5 C 11,9 C 0,0 km/h (0 Bft)
25.05.2020 06:25 20,7 C 11,8 C 14,6 C 11,8 C 11,7 C 49 % 85 % 72 % 1026,9 hPa 0,0 l/m 0,0 km/h (0 Bft) SW 225 9,4 C 11,8 C 0,0 km/h (0 Bft)
25.05.2020 06:20 20,7 C 11,7 C 14,6 C 11,7 C 11,7 C 49 % 85 % 72 % 1026,9 hPa 0,0 l/m 0,0 km/h (0 Bft) W-SW 247 9,3 C 11,7 C 0,0 km/h (0 Bft)
25.05.2020 06:15 20,7 C 11,7 C 14,6 C 11,7 C 11,6 C 49 % 85 % 72 % 1026,9 hPa 0,0 l/m 0,3 km/h (0 Bft) SW 225 9,3 C 11,7 C 0,0 km/h (0 Bft)
25.05.2020 06:10 20,7 C 11,6 C 14,6 C 11,6 C 11,5 C 49 % 85 % 72 % 1026,9 hPa 0,0 l/m 0,3 km/h (0 Bft) SW 225 9,2 C 11,6 C 0,0 km/h (0 Bft)
25.05.2020 06:05 20,7 C 11,5 C 14,6 C 11,4 C 11,3 C 49 % 85 % 72 % 1027,0 hPa 0,0 l/m 0,2 km/h (0 Bft) W-SW 247 9,1 C 11,5 C 0,0 km/h (0 Bft)
25.05.2020 06:00 20,7 C 11,5 C 14,6 C 11,4 C 11,1 C 49 % 85 % 72 % 1027,0 hPa 0,0 l/m 0,2 km/h (0 Bft) W-SW 247 9,1 C 11,5 C 0,0 km/h (0 Bft)
25.05.2020 05:55 20,7 C 11,4 C 14,6 C 11,2 C 10,9 C 49 % 85 % 71 % 1027,0 hPa 0,0 l/m 0,0 km/h (0 Bft) W-SW 247 9,0 C 11,4 C 0,0 km/h (0 Bft)
25.05.2020 05:50 20,7 C 11,4 C 14,6 C 11,1 C 10,6 C 49 % 85 % 71 % 1027,0 hPa 0,0 l/m 0,0 km/h (0 Bft) W-SW 247 9,0 C 11,4 C 0,0 km/h (0 Bft)
25.05.2020 05:45 20,7 C 11,3 C 14,6 C 11,0 C 10,4 C 49 % 85 % 71 % 1027,1 hPa 0,0 l/m 0,0 km/h (0 Bft) W-SW 247 8,9 C 11,3 C 0,0 km/h (0 Bft)
25.05.2020 05:40 20,7 C 11,3 C 14,6 C 11,0 C 10,3 C 49 % 85 % 71 % 1027,1 hPa 0,0 l/m 0,0 km/h (0 Bft) W-SW 247 8,9 C 11,3 C 0,0 km/h (0 Bft)
25.05.2020 05:35 20,7 C 11,2 C 14,6 C 10,9 C 10,2 C 49 % 85 % 71 % 1027,1 hPa 0,0 l/m 0,0 km/h (0 Bft) W-SW 247 8,8 C 11,2 C 0,0 km/h (0 Bft)
25.05.2020 05:30 20,7 C 11,2 C 14,6 C 10,8 C 10,1 C 49 % 85 % 70 % 1027,1 hPa 0,0 l/m 0,0 km/h (0 Bft) SW 225 8,8 C 11,2 C 0,0 km/h (0 Bft)
25.05.2020 05:25 20,7 C 11,1 C 14,6 C 10,7 C 9,9 C 49 % 84 % 70 % 1027,0 hPa 0,0 l/m 0,0 km/h (0 Bft) W-SW 247 8,5 C 11,1 C 0,0 km/h (0 Bft)
25.05.2020 05:20 20,7 C 11,1 C 14,6 C 10,7 C 9,8 C 49 % 84 % 70 % 1027,0 hPa 0,0 l/m 0,0 km/h (0 Bft) SW 225 8,5 C 11,1 C 0,0 km/h (0 Bft)
25.05.2020 05:15 20,7 C 11,1 C 14,6 C 10,6 C 9,6 C 49 % 83 % 70 % 1027,0 hPa 0,0 l/m 0,0 km/h (0 Bft) SW 225 8,3 C 11,1 C 0,0 km/h (0 Bft)
25.05.2020 05:10 20,7 C 11,1 C 14,6 C 10,6 C 9,5 C 49 % 83 % 70 % 1027,0 hPa 0,0 l/m 0,0 km/h (0 Bft) SW 225 8,3 C 11,1 C 0,0 km/h (0 Bft)
25.05.2020 05:05 20,7 C 11,1 C 14,6 C 10,6 C 9,5 C 49 % 83 % 70 % 1026,9 hPa 0,0 l/m 0,0 km/h (0 Bft) SW 225 8,3 C 11,1 C 0,0 km/h (0 Bft)
25.05.2020 05:00 20,7 C 11,2 C 14,6 C 10,6 C 9,5 C 49 % 83 % 70 % 1026,9 hPa 0,0 l/m 0,0 km/h (0 Bft) SW 225 8,4 C 11,2 C 0,0 km/h (0 Bft)
25.05.2020 04:55 20,7 C 11,5 C 14,6 C 10,9 C 9,7 C 49 % 83 % 70 % 1026,9 hPa 0,0 l/m 0,0 km/h (0 Bft) SW 225 8,7 C 11,5 C 0,0 km/h (0 Bft)
25.05.2020 04:50 20,7 C 11,5 C 14,6 C 10,9 C 9,7 C 49 % 84 % 70 % 1026,9 hPa 0,0 l/m 0,0 km/h (0 Bft) SW 225 8,9 C 11,5 C 0,0 km/h (0 Bft)
25.05.2020 04:45 20,7 C 11,6 C 14,6 C 11,0 C 9,8 C 49 % 83 % 70 % 1026,8 hPa 0,0 l/m 0,2 km/h (0 Bft) W-SW 247 8,8 C 11,6 C 0,0 km/h (0 Bft)
25.05.2020 04:40 20,7 C 11,6 C 14,6 C 11,0 C 9,8 C 49 % 83 % 70 % 1026,8 hPa 0,0 l/m 0,3 km/h (0 Bft) SW 225 8,8 C 11,6 C 0,0 km/h (0 Bft)
25.05.2020 04:35 20,7 C 11,6 C 14,6 C 11,0 C 9,8 C 49 % 83 % 70 % 1026,8 hPa 0,0 l/m 0,5 km/h (0 Bft) S 180 8,8 C 11,6 C 2,3 km/h (1 Bft)
25.05.2020 04:30 20,7 C 11,6 C 14,6 C 11,0 C 9,8 C 49 % 83 % 70 % 1026,8 hPa 0,0 l/m 0,3 km/h (0 Bft) S-SW 202 8,8 C 11,6 C 2,1 km/h (1 Bft)
25.05.2020 04:25 20,7 C 11,6 C 14,6 C 11,0 C 9,9 C 49 % 83 % 70 % 1026,8 hPa 0,0 l/m 0,0 km/h (0 Bft) SW 225 8,8 C 11,6 C 0,0 km/h (0 Bft)
25.05.2020 04:20 20,7 C 11,6 C 14,7 C 11,1 C 10,0 C 49 % 83 % 70 % 1026,8 hPa 0,0 l/m 0,0 km/h (0 Bft) W-SW 247 8,8 C 11,6 C 0,0 km/h (0 Bft)
25.05.2020 04:15 20,8 C 11,7 C 14,7 C 11,1 C 9,8 C 49 % 83 % 70 % 1026,8 hPa 0,0 l/m 0,0 km/h (0 Bft) W-SW 247 8,9 C 11,7 C 0,0 km/h (0 Bft)
25.05.2020 04:10 20,8 C 11,7 C 14,7 C 11,1 C 9,8 C 49 % 83 % 70 % 1026,8 hPa 0,0 l/m 0,2 km/h (0 Bft) W-SW 247 8,9 C 11,7 C 0,0 km/h (0 Bft)
25.05.2020 04:05 20,7 C 11,7 C 14,7 C 11,1 C 9,8 C 49 % 82 % 70 % 1026,8 hPa 0,0 l/m 0,3 km/h (0 Bft) W-SW 247 8,7 C 11,7 C 0,0 km/h (0 Bft)
25.05.2020 04:00 20,8 C 11,8 C 14,8 C 11,1 C 9,8 C 49 % 82 % 70 % 1026,8 hPa 0,0 l/m 0,3 km/h (0 Bft) SW 225 8,8 C 11,8 C 3,5 km/h (1 Bft)
25.05.2020 03:55 20,8 C 11,8 C 14,8 C 11,2 C 9,9 C 49 % 82 % 70 % 1026,8 hPa 0,0 l/m 0,0 km/h (0 Bft) SW 225 8,8 C 11,8 C 0,0 km/h (0 Bft)
25.05.2020 03:50 20,8 C 11,9 C 14,8 C 11,2 C 9,9 C 49 % 82 % 70 % 1026,8 hPa 0,0 l/m 0,0 km/h (0 Bft) SW 225 8,9 C 11,9 C 0,0 km/h (0 Bft)
25.05.2020 03:45 20,8 C 11,9 C 14,9 C 11,3 C 10,0 C 49 % 82 % 70 % 1026,7 hPa 0,0 l/m 0,0 km/h (0 Bft) W-SW 247 8,9 C 11,9 C 0,0 km/h (0 Bft)
25.05.2020 03:40 20,8 C 11,9 C 14,9 C 11,3 C 10,0 C 49 % 82 % 70 % 1026,7 hPa 0,0 l/m 0,0 km/h (0 Bft) W-SW 247 8,9 C 11,9 C 0,0 km/h (0 Bft)
25.05.2020 03:35 20,8 C 12,0 C 14,9 C 11,4 C 10,1 C 49 % 82 % 70 % 1026,7 hPa 0,0 l/m 0,2 km/h (0 Bft) SW 225 9,0 C 12,0 C 0,0 km/h (0 Bft)
25.05.2020 03:30 20,8 C 12,1 C 14,9 C 11,5 C 10,2 C 49 % 82 % 70 % 1026,7 hPa 0,0 l/m 0,2 km/h (0 Bft) W-SW 247 9,1 C 12,1 C 0,0 km/h (0 Bft)
25.05.2020 03:25 20,8 C 12,1 C 15,0 C 11,5 C 10,3 C 49 % 82 % 70 % 1026,9 hPa 0,0 l/m 0,2 km/h (0 Bft) W-SW 247 9,1 C 12,1 C 4,0 km/h (1 Bft)
25.05.2020 03:20 20,8 C 12,1 C 15,0 C 11,5 C 10,4 C 49 % 83 % 70 % 1026,9 hPa 0,0 l/m 0,0 km/h (0 Bft) W-SW 247 9,3 C 12,1 C 0,0 km/h (0 Bft)
25.05.2020 03:15 20,8 C 12,1 C 15,0 C 11,6 C 10,5 C 49 % 83 % 70 % 1026,9 hPa 0,0 l/m 0,2 km/h (0 Bft) W-SW 247 9,3 C 12,1 C 0,0 km/h (0 Bft)
25.05.2020 03:10 20,8 C 12,2 C 15,1 C 11,7 C 10,6 C 49 % 83 % 70 % 1026,9 hPa 0,0 l/m 0,2 km/h (0 Bft) W-SW 247 9,4 C 12,2 C 0,0 km/h (0 Bft)
25.05.2020 03:05 20,8 C 12,2 C 15,1 C 11,7 C 10,6 C 49 % 83 % 70 % 1027,1 hPa 0,0 l/m 0,0 km/h (0 Bft) W-SW 247 9,4 C 12,2 C 0,0 km/h (0 Bft)
25.05.2020 03:00 20,8 C 12,3 C 15,1 C 11,7 C 10,6 C 49 % 82 % 70 % 1027,1 hPa 0,0 l/m 0,0 km/h (0 Bft) W-SW 247 9,3 C 12,3 C 0,0 km/h (0 Bft)
25.05.2020 02:55 20,8 C 12,3 C 15,1 C 11,8 C 10,8 C 49 % 82 % 70 % 1027,1 hPa 0,0 l/m 0,0 km/h (0 Bft) W 270 9,3 C 12,3 C 0,0 km/h (0 Bft)
25.05.2020 02:50 20,8 C 12,3 C 15,1 C 11,8 C 10,8 C 49 % 83 % 70 % 1027,1 hPa 0,0 l/m 0,3 km/h (0 Bft) W-SW 247 9,5 C 12,3 C 0,0 km/h (0 Bft)
25.05.2020 02:45 20,8 C 12,3 C 15,1 C 11,8 C 10,9 C 49 % 83 % 70 % 1027,1 hPa 0,0 l/m 1,0 km/h (0 Bft) SW 225 9,5 C 12,3 C 0,0 km/h (0 Bft)
25.05.2020 02:40 20,8 C 12,3 C 15,1 C 11,8 C 10,8 C 49 % 83 % 70 % 1027,1 hPa 0,0 l/m 0,8 km/h (0 Bft) W-SW 247 9,5 C 12,3 C 2,1 km/h (1 Bft)
25.05.2020 02:35 20,8 C 12,3 C 15,2 C 11,8 C 10,7 C 49 % 83 % 70 % 1027,1 hPa 0,0 l/m 0,0 km/h (0 Bft) SW 225 9,5 C 12,3 C 1,9 km/h (1 Bft)
25.05.2020 02:30 20,8 C 12,3 C 15,2 C 11,8 C 10,7 C 49 % 83 % 70 % 1027,1 hPa 0,0 l/m 0,0 km/h (0 Bft) O-SO 112 9,5 C 12,3 C 0,0 km/h (0 Bft)
25.05.2020 02:25 20,8 C 12,3 C 15,2 C 11,8 C 10,8 C 49 % 83 % 70 % 1027,1 hPa 0,0 l/m 0,5 km/h (0 Bft) SW 225 9,5 C 12,3 C 0,0 km/h (0 Bft)
25.05.2020 02:20 20,8 C 12,3 C 15,2 C 11,8 C 10,8 C 49 % 83 % 70 % 1027,1 hPa 0,0 l/m 0,5 km/h (0 Bft) W-SW 247 9,5 C 12,3 C 0,0 km/h (0 Bft)
25.05.2020 02:15 20,8 C 12,3 C 15,2 C 11,8 C 10,8 C 49 % 83 % 70 % 1027,1 hPa 0,0 l/m 0,0 km/h (0 Bft) W-SW 247 9,5 C 12,3 C 0,0 km/h (0 Bft)
25.05.2020 02:10 20,8 C 12,3 C 15,3 C 11,8 C 10,9 C 49 % 83 % 70 % 1027,1 hPa 0,0 l/m 0,0 km/h (0 Bft) SW 225 9,5 C 12,3 C 0,0 km/h (0 Bft)
25.05.2020 02:05 20,8 C 12,3 C 15,3 C 11,9 C 11,0 C 49 % 83 % 70 % 1027,0 hPa 0,0 l/m 0,0 km/h (0 Bft) W-SW 247 9,5 C 12,3 C 0,0 km/h (0 Bft)
25.05.2020 02:00 20,8 C 12,4 C 15,3 C 11,9 C 11,0 C 49 % 83 % 70 % 1027,0 hPa 0,0 l/m 0,0 km/h (0 Bft) W-SW 247 9,6 C 12,4 C 0,0 km/h (0 Bft)
25.05.2020 01:55 20,8 C 12,3 C 15,3 C 11,9 C 11,0 C 49 % 83 % 70 % 1027,0 hPa 0,0 l/m 0,0 km/h (0 Bft) SW 225 9,5 C 12,3 C 0,0 km/h (0 Bft)
25.05.2020 01:50 20,8 C 12,4 C 15,3 C 11,9 C 11,0 C 49 % 83 % 70 % 1027,0 hPa 0,0 l/m 0,0 km/h (0 Bft) W-SW 247 9,6 C 12,4 C 0,0 km/h (0 Bft)
25.05.2020 01:45 20,8 C 12,4 C 15,3 C 11,9 C 10,9 C 49 % 83 % 70 % 1027,1 hPa 0,0 l/m 0,3 km/h (0 Bft) SW 225 9,6 C 12,4 C 0,0 km/h (0 Bft)
25.05.2020 01:40 20,8 C 12,4 C 15,3 C 11,9 C 10,9 C 49 % 83 % 70 % 1027,1 hPa 0,0 l/m 0,6 km/h (0 Bft) W-SW 247 9,6 C 12,4 C 0,0 km/h (0 Bft)
25.05.2020 01:35 20,8 C 12,4 C 15,3 C 11,9 C 10,9 C 49 % 83 % 70 % 1027,1 hPa 0,0 l/m 0,6 km/h (0 Bft) S-SW 202 9,6 C 12,4 C 0,0 km/h (0 Bft)
25.05.2020 01:30 20,8 C 12,5 C 15,3 C 12,0 C 10,9 C 49 % 83 % 70 % 1027,1 hPa 0,0 l/m 0,5 km/h (0 Bft) S 180 9,7 C 12,5 C 6,4 km/h (2 Bft)
25.05.2020 01:25 20,8 C 12,5 C 15,3 C 12,0 C 10,9 C 49 % 82 % 70 % 1026,9 hPa 0,0 l/m 0,0 km/h (0 Bft) SW 225 9,5 C 12,5 C 0,0 km/h (0 Bft)
25.05.2020 01:20 20,8 C 12,5 C 15,4 C 12,0 C 10,9 C 49 % 82 % 69 % 1026,9 hPa 0,0 l/m 0,0 km/h (0 Bft) SW 225 9,5 C 12,5 C 0,0 km/h (0 Bft)
25.05.2020 01:15 20,8 C 12,5 C 15,4 C 12,0 C 10,9 C 49 % 82 % 69 % 1026,9 hPa 0,0 l/m 0,0 km/h (0 Bft) S-SW 202 9,5 C 12,5 C 0,0 km/h (0 Bft)
25.05.2020 01:10 20,8 C 12,5 C 15,4 C 12,0 C 11,0 C 49 % 82 % 69 % 1026,9 hPa 0,0 l/m 0,0 km/h (0 Bft) W-SW 247 9,5 C 12,5 C 0,0 km/h (0 Bft)
25.05.2020 01:05 20,8 C 12,4 C 15,4 C 11,9 C 10,9 C 49 % 82 % 69 % 1026,8 hPa 0,0 l/m 0,0 km/h (0 Bft) W-SW 247 9,4 C 12,4 C 0,0 km/h (0 Bft)
25.05.2020 01:00 20,8 C 12,5 C 15,4 C 12,0 C 10,9 C 49 % 82 % 69 % 1026,8 hPa 0,0 l/m 0,0 km/h (0 Bft) W-SW 247 9,5 C 12,5 C 0,0 km/h (0 Bft)
25.05.2020 00:55 20,8 C 12,4 C 15,4 C 11,9 C 10,9 C 49 % 82 % 69 % 1026,8 hPa 0,0 l/m 0,0 km/h (0 Bft) W-SW 247 9,4 C 12,4 C 0,0 km/h (0 Bft)
25.05.2020 00:50 20,9 C 12,5 C 15,5 C 12,0 C 10,9 C 49 % 82 % 69 % 1026,8 hPa 0,0 l/m 0,0 km/h (0 Bft) W-SW 247 9,5 C 12,5 C 0,0 km/h (0 Bft)
25.05.2020 00:45 20,8 C 12,5 C 15,5 C 12,0 C 11,1 C 49 % 82 % 70 % 1027,1 hPa 0,0 l/m 0,2 km/h (0 Bft) W-SW 247 9,5 C 12,5 C 0,0 km/h (0 Bft)
25.05.2020 00:40 20,9 C 12,5 C 15,5 C 12,0 C 11,1 C 49 % 82 % 69 % 1027,1 hPa 0,0 l/m 0,3 km/h (0 Bft) NW 315 9,5 C 12,5 C 0,0 km/h (0 Bft)
25.05.2020 00:35 20,9 C 12,5 C 15,5 C 12,0 C 11,1 C 49 % 82 % 69 % 1027,1 hPa 0,0 l/m 0,3 km/h (0 Bft) W 270 9,5 C 12,5 C 0,0 km/h (0 Bft)
25.05.2020 00:30 20,9 C 12,5 C 15,5 C 12,0 C 11,1 C 49 % 82 % 69 % 1027,1 hPa 0,0 l/m 0,8 km/h (0 Bft) SW 225 9,5 C 12,5 C 4,7 km/h (1 Bft)
25.05.2020 00:25 20,9 C 12,5 C 15,5 C 12,0 C 11,1 C 49 % 82 % 69 % 1027,0 hPa 0,0 l/m 0,5 km/h (0 Bft) W-SW 247 9,5 C 12,5 C 0,0 km/h (0 Bft)
25.05.2020 00:20 20,9 C 12,5 C 15,6 C 12,0 C 11,1 C 49 % 82 % 69 % 1027,0 hPa 0,0 l/m 0,2 km/h (0 Bft) W-SW 247 9,5 C 12,5 C 3,1 km/h (1 Bft)
25.05.2020 00:15 20,9 C 12,6 C 15,6 C 12,1 C 11,1 C 49 % 81 % 69 % 1027,0 hPa 0,0 l/m 0,2 km/h (0 Bft) W-SW 247 9,4 C 12,6 C 0,0 km/h (0 Bft)
25.05.2020 00:10 20,9 C 12,6 C 15,6 C 12,1 C 11,1 C 49 % 81 % 69 % 1027,0 hPa 0,0 l/m 0,0 km/h (0 Bft) W-SW 247 9,4 C 12,6 C 2,1 km/h (1 Bft)
25.05.2020 00:05 20,9 C 12,6 C 15,6 C 12,1 C 11,1 C 49 % 81 % 69 % 1026,8 hPa 0,0 l/m 0,5 km/h (0 Bft) W-SW 247 9,4 C 12,6 C 0,0 km/h (0 Bft)
25.05.2020 00:00 20,9 C 12,6 C 15,6 C 12,1 C 11,1 C 49 % 81 % 69 % 1026,8 hPa 0,0 l/m 0,5 km/h (0 Bft) SW 225 9,4 C 12,6 C 0,0 km/h (0 Bft)
24.05.2020 23:55 20,9 C 12,6 C 15,7 C 12,1 C 11,1 C 49 % 81 % 69 % 1026,8 hPa 0,0 l/m 0,2 km/h (0 Bft) W-SW 247 9,4 C 12,6 C 3,1 km/h (1 Bft)
24.05.2020 23:50 20,9 C 12,6 C 15,7 C 12,1 C 11,1 C 49 % 81 % 69 % 1026,8 hPa 0,0 l/m 0,0 km/h (0 Bft) W-SW 247 9,4 C 12,6 C 0,0 km/h (0 Bft)
24.05.2020 23:45 20,9 C 12,6 C 15,7 C 12,1 C 11,1 C 49 % 81 % 68 % 1026,8 hPa 0,0 l/m 0,0 km/h (0 Bft) W-SW 247 9,4 C 12,6 C 0,0 km/h (0 Bft)
24.05.2020 23:40 20,9 C 12,7 C 15,7 C 12,2 C 11,1 C 49 % 81 % 68 % 1026,8 hPa 0,0 l/m 0,0 km/h (0 Bft) SW 225 9,5 C 12,7 C 0,0 km/h (0 Bft)
24.05.2020 23:35 20,9 C 12,7 C 15,7 C 12,2 C 11,1 C 49 % 81 % 68 % 1026,8 hPa 0,0 l/m 0,0 km/h (0 Bft) W-SW 247 9,5 C 12,7 C 0,0 km/h (0 Bft)
24.05.2020 23:30 20,9 C 12,7 C 15,7 C 12,2 C 11,1 C 49 % 81 % 68 % 1026,8 hPa 0,0 l/m 0,0 km/h (0 Bft) W-SW 247 9,5 C 12,7 C 0,0 km/h (0 Bft)
24.05.2020 23:25 20,9 C 12,7 C 15,7 C 12,2 C 11,1 C 49 % 81 % 68 % 1026,9 hPa 0,0 l/m 0,0 km/h (0 Bft) W-SW 247 9,5 C 12,7 C 0,0 km/h (0 Bft)
24.05.2020 23:20 20,9 C 12,7 C 15,7 C 12,2 C 11,2 C 49 % 81 % 68 % 1026,9 hPa 0,0 l/m 0,0 km/h (0 Bft) S-SW 202 9,5 C 12,7 C 0,0 km/h (0 Bft)
24.05.2020 23:15 20,9 C 12,7 C 15,7 C 12,2 C 11,1 C 49 % 81 % 68 % 1026,9 hPa 0,0 l/m 0,0 km/h (0 Bft) SW 225 9,5 C 12,7 C 0,0 km/h (0 Bft)
24.05.2020 23:10 20,9 C 12,7 C 15,8 C 12,2 C 11,1 C 49 % 80 % 68 % 1026,9 hPa 0,0 l/m 0,0 km/h (0 Bft) W-SW 247 9,3 C 12,7 C 0,0 km/h (0 Bft)
24.05.2020 23:05 20,9 C 12,8 C 15,8 C 12,2 C 11,1 C 49 % 80 % 68 % 1026,8 hPa 0,0 l/m 0,0 km/h (0 Bft) SW 225 9,4 C 12,8 C 0,0 km/h (0 Bft)
24.05.2020 23:00 20,9 C 12,8 C 15,8 C 12,3 C 11,2 C 49 % 80 % 68 % 1026,8 hPa 0,0 l/m 0,0 km/h (0 Bft) SW 225 9,4 C 12,8 C 0,0 km/h (0 Bft)
24.05.2020 22:55 21,0 C 12,8 C 15,8 C 12,3 C 11,2 C 49 % 80 % 67 % 1026,8 hPa 0,0 l/m 0,0 km/h (0 Bft) W-SW 247 9,4 C 12,8 C 0,0 km/h (0 Bft)
24.05.2020 22:50 20,9 C 12,9 C 15,8 C 12,3 C 11,2 C 49 % 80 % 67 % 1026,8 hPa 0,0 l/m 0,0 km/h (0 Bft) W-SW 247 9,5 C 12,9 C 0,0 km/h (0 Bft)
24.05.2020 22:45 21,0 C 12,9 C 15,8 C 12,3 C 11,2 C 49 % 80 % 67 % 1026,8 hPa 0,0 l/m 0,0 km/h (0 Bft) W-SW 247 9,5 C 12,9 C 0,0 km/h (0 Bft)
24.05.2020 22:40 21,0 C 12,9 C 15,8 C 12,3 C 11,1 C 49 % 79 % 67 % 1026,8 hPa 0,0 l/m 0,0 km/h (0 Bft) SW 225 9,3 C 12,9 C 0,0 km/h (0 Bft)
24.05.2020 22:35 21,0 C 12,9 C 15,9 C 12,3 C 11,1 C 49 % 79 % 67 % 1026,8 hPa 0,0 l/m 0,0 km/h (0 Bft) W-SW 247 9,3 C 12,9 C 0,0 km/h (0 Bft)
24.05.2020 22:30 21,0 C 12,9 C 15,9 C 12,3 C 11,2 C 49 % 79 % 67 % 1026,8 hPa 0,0 l/m 0,2 km/h (0 Bft) W-SW 247 9,3 C 12,9 C 0,0 km/h (0 Bft)
24.05.2020 22:25 21,0 C 12,9 C 15,9 C 12,3 C 11,1 C 49 % 79 % 67 % 1026,6 hPa 0,0 l/m 0,2 km/h (0 Bft) W-SW 247 9,3 C 12,9 C 0,0 km/h (0 Bft)
24.05.2020 22:20 21,0 C 13,0 C 15,9 C 12,4 C 11,1 C 49 % 79 % 67 % 1026,6 hPa 0,0 l/m 0,5 km/h (0 Bft) SW 225 9,4 C 13,0 C 0,0 km/h (0 Bft)
24.05.2020 22:15 21,0 C 13,0 C 15,9 C 12,4 C 11,2 C 49 % 78 % 67 % 1026,6 hPa 0,0 l/m 0,6 km/h (0 Bft) W 270 9,3 C 13,0 C 0,0 km/h (0 Bft)
24.05.2020 22:10 21,0 C 13,0 C 16,0 C 12,4 C 11,2 C 49 % 78 % 66 % 1026,6 hPa 0,0 l/m 0,2 km/h (0 Bft) W-SW 247 9,3 C 13,0 C 0,0 km/h (0 Bft)
24.05.2020 22:05 21,0 C 13,1 C 16,0 C 12,5 C 11,2 C 49 % 78 % 66 % 1026,7 hPa 0,0 l/m 0,2 km/h (0 Bft) W-SW 247 9,4 C 13,1 C 0,0 km/h (0 Bft)
24.05.2020 22:00 21,0 C 13,1 C 16,0 C 12,5 C 11,2 C 49 % 78 % 66 % 1026,7 hPa 0,0 l/m 0,5 km/h (0 Bft) W-SW 247 9,4 C 13,1 C 0,0 km/h (0 Bft)
24.05.2020 21:55 21,0 C 13,2 C 16,0 C 12,6 C 11,3 C 49 % 78 % 66 % 1026,7 hPa 0,0 l/m 1,1 km/h (1 Bft) S-SW 202 9,4 C 13,2 C 0,0 km/h (0 Bft)
24.05.2020 21:50 21,0 C 13,2 C 16,0 C 12,6 C 11,3 C 49 % 78 % 66 % 1026,7 hPa 0,7 l/m 1,0 km/h (0 Bft) W-SW 247 9,4 C 13,2 C 3,5 km/h (1 Bft)
24.05.2020 21:45 21,0 C 13,3 C 16,1 C 12,6 C 11,3 C 49 % 77 % 65 % 1026,6 hPa 0,0 l/m 0,5 km/h (0 Bft) SW 225 9,4 C 13,3 C 0,0 km/h (0 Bft)
24.05.2020 21:40 21,0 C 13,4 C 16,1 C 12,7 C 11,3 C 49 % 77 % 65 % 1026,6 hPa 0,0 l/m 1,0 km/h (0 Bft) W-SW 247 9,5 C 13,4 C 0,0 km/h (0 Bft)
24.05.2020 21:35 21,0 C 13,5 C 16,1 C 12,8 C 11,3 C 49 % 77 % 65 % 1026,6 hPa 0,0 l/m 1,3 km/h (1 Bft) SW 225 9,5 C 13,5 C 3,4 km/h (1 Bft)
24.05.2020 21:30 21,0 C 13,5 C 16,1 C 12,8 C 11,4 C 49 % 76 % 65 % 1026,6 hPa 0,0 l/m 2,1 km/h (1 Bft) SW 225 9,4 C 13,5 C 2,7 km/h (1 Bft)
24.05.2020 21:25 21,0 C 13,6 C 16,1 C 12,9 C 11,4 C 49 % 76 % 64 % 1026,4 hPa 0,0 l/m 3,5 km/h (1 Bft) W 270 9,4 C 13,6 C 3,7 km/h (1 Bft)
24.05.2020 21:20 21,1 C 13,7 C 16,1 C 13,0 C 11,5 C 49 % 76 % 64 % 1026,4 hPa 0,0 l/m 3,9 km/h (1 Bft) W-SW 247 9,5 C 13,7 C 0,0 km/h (0 Bft)
24.05.2020 21:15 21,1 C 13,7 C 16,2 C 13,0 C 11,6 C 49 % 75 % 64 % 1026,4 hPa 0,0 l/m 3,7 km/h (1 Bft) SW 225 9,3 C 13,7 C 4,3 km/h (1 Bft)
24.05.2020 21:10 21,1 C 13,8 C 16,1 C 13,1 C 11,8 C 49 % 75 % 63 % 1026,4 hPa 0,0 l/m 2,9 km/h (1 Bft) W-SW 247 9,4 C 13,8 C 7,9 km/h (2 Bft)
24.05.2020 21:05 21,1 C 13,9 C 16,1 C 13,3 C 12,2 C 49 % 74 % 63 % 1025,9 hPa 0,0 l/m 1,8 km/h (1 Bft) S 180 9,3 C 13,9 C 9,3 km/h (2 Bft)
24.05.2020 21:00 21,1 C 13,9 C 16,1 C 13,4 C 12,5 C 49 % 74 % 62 % 1025,9 hPa 0,0 l/m 1,1 km/h (1 Bft) S 180 9,3 C 13,9 C 3,7 km/h (1 Bft)
24.05.2020 20:55 21,1 C 13,9 C 16,1 C 13,6 C 13,0 C 49 % 74 % 62 % 1025,9 hPa 0,0 l/m 0,8 km/h (0 Bft) NW 315 9,3 C 13,9 C 2,6 km/h (1 Bft)
24.05.2020 20:50 21,1 C 13,9 C 16,2 C 13,7 C 13,3 C 49 % 74 % 62 % 1025,9 hPa 0,0 l/m 1,0 km/h (0 Bft) W 270 9,3 C 13,9 C 0,0 km/h (0 Bft)
24.05.2020 20:45 21,1 C 14,1 C 16,2 C 13,9 C 13,5 C 49 % 73 % 62 % 1025,9 hPa 0,0 l/m 2,4 km/h (1 Bft) W-SW 247 9,3 C 14,1 C 1,6 km/h (1 Bft)
24.05.2020 20:40 21,1 C 14,1 C 16,2 C 13,9 C 13,5 C 49 % 73 % 61 % 1025,9 hPa 0,0 l/m 3,2 km/h (1 Bft) W-SW 247 9,3 C 14,1 C 4,2 km/h (1 Bft)
24.05.2020 20:35 21,1 C 14,1 C 16,2 C 13,9 C 13,6 C 49 % 73 % 61 % 1025,9 hPa 0,0 l/m 4,3 km/h (1 Bft) SW 225 9,3 C 14,1 C 6,1 km/h (2 Bft)
24.05.2020 20:30 21,1 C 14,1 C 16,2 C 13,9 C 13,6 C 49 % 73 % 61 % 1025,9 hPa 0,0 l/m 4,3 km/h (1 Bft) SW 225 9,3 C 14,1 C 6,8 km/h (2 Bft)
24.05.2020 20:25 21,1 C 14,1 C 16,2 C 13,9 C 13,6 C 49 % 72 % 61 % 1025,8 hPa 0,0 l/m 3,9 km/h (1 Bft) S 180 9,1 C 14,1 C 3,9 km/h (1 Bft)
24.05.2020 20:20 21,1 C 14,1 C 16,2 C 13,9 C 13,6 C 49 % 72 % 61 % 1025,8 hPa 0,0 l/m 4,2 km/h (1 Bft) S-SW 202 9,1 C 14,1 C 6,6 km/h (2 Bft)
24.05.2020 20:15 21,2 C 14,1 C 16,2 C 13,9 C 13,6 C 49 % 72 % 61 % 1025,8 hPa 0,0 l/m 4,2 km/h (1 Bft) S-SW 202 9,1 C 14,1 C 4,8 km/h (1 Bft)
24.05.2020 20:10 21,2 C 14,2 C 16,2 C 14,0 C 13,6 C 49 % 72 % 61 % 1025,8 hPa 0,0 l/m 4,5 km/h (1 Bft) SW 225 9,2 C 14,2 C 5,1 km/h (1 Bft)
24.05.2020 20:05 21,2 C 14,2 C 16,3 C 14,0 C 13,6 C 49 % 71 % 61 % 1025,9 hPa 0,0 l/m 4,7 km/h (1 Bft) SW 225 9,0 C 14,2 C 5,1 km/h (1 Bft)
24.05.2020 20:00 21,2 C 14,2 C 16,3 C 14,0 C 13,6 C 49 % 71 % 61 % 1025,9 hPa 0,0 l/m 5,1 km/h (1 Bft) SW 225 9,0 C 14,2 C 6,1 km/h (2 Bft)
_ Min-Zeit 04:05 05:05 04:25 05:00 05:00 18:25 18:00 18:40 20:10 - 22:35 - - 18:00 05:05 20:50
Minimum _ 20,7 C 11,1 C 14,6 C 10,6 C 9,5 C 45 % 46 % 37 % 1025,8 hPa - 0,0 km/h (0 Bft) - - 7,0 C 11,1 C 0,0 km/h (0 Bft)
_ Max-Zeit 18:50 18:45 18:55 16:00 16:00 20:00 05:30 07:20 18:30 21:50 13:40 - - 10:15 18:45 13:30
Maximum _ 23,1 C 19,2 C 23,6 C 24,8 C 24,8 C 49 % 85 % 73 % 1030,1 hPa 0,7 l/m 10,8 km/h
NW (2 Bft)
- - 10,5 C 19,2 C 29,3 km/h
O (5 Bft)
Durchschnitt _ 21,2 C 14,4 C 16,3 C 15,6 C 15,2 C 48 % 72 % 62 % 1027,6 hPa #1,4 l/m 3,4 km/h (1 Bft) W-SW - 9,2 C 14,2 C 4,8 km/h (1 Bft)